Terminal Aerodrome Forecast
Issued by NWS Charleston, WV

Current Version | Previous Version | Graphics & Text | Print | Product List | Glossary On
Versions: 1 2 3 4 5 6 7 8 9 10 11 12 13 14 15 16 17 18 19 20 21 22 23 24 25 26
000
FTUS41 KRLX 220905 AAA
TAFBKW
TAF AMD
KBKW 220905Z 2209/2306 VRB03KT 6SM SHRA OVC015
      TEMPO 2209/2211 OVC007
     FM221100 00000KT 6SM BR OVC007
      TEMPO 2211/2214 3SM SHRA
     FM221400 VRB03KT P6SM OVC007
     FM221900 24005KT 3SM SHRA OVC008
     FM222100 36010KT 3SM SHRA OVC008
     FM230000 03005KT 3SM SHRA OVC008
     FM230200 05005KT 4SM SHRA OVC010
     FM230400 07006KT 5SM SHRA OVC015=

USA.gov is the U.S. government's official web portal to all federal, state and local government web resources and services.